createdAt,value
2023-05-01T00:00:39.876Z,1007.76
2023-05-01T00:01:39.862Z,1007.74
2023-05-01T00:02:39.934Z,1007.74
2023-05-01T00:03:40.056Z,1007.73
2023-05-01T00:04:39.887Z,1007.70
2023-05-01T00:05:39.823Z,1007.69
2023-05-01T00:06:39.959Z,1007.67
2023-05-01T00:07:39.798Z,1007.66
2023-05-01T00:08:39.791Z,1007.64
2023-05-01T00:09:39.794Z,1007.64
2023-05-01T00:10:39.806Z,1007.62
2023-05-01T00:11:39.752Z,1007.61
2023-05-01T00:12:39.736Z,1007.61
2023-05-01T00:13:39.746Z,1007.60
2023-05-01T00:14:39.731Z,1007.58
2023-05-01T00:15:39.717Z,1007.57
2023-05-01T00:16:39.804Z,1007.55
2023-05-01T00:17:39.725Z,1007.54
2023-05-01T00:18:39.699Z,1007.53
2023-05-01T00:19:39.700Z,1007.50
2023-05-01T00:20:39.661Z,1007.49
2023-05-01T00:21:39.652Z,1007.47
2023-05-01T00:22:39.649Z,1007.47
2023-05-01T00:23:39.631Z,1007.47
2023-05-01T00:24:39.621Z,1007.44
2023-05-01T00:25:39.599Z,1007.41
2023-05-01T00:26:39.615Z,1007.40
2023-05-01T00:27:39.582Z,1007.39
2023-05-01T00:28:39.594Z,1007.38
2023-05-01T00:29:39.572Z,1007.37
2023-05-01T00:30:39.623Z,1007.36
2023-05-01T00:31:39.605Z,1007.34
2023-05-01T00:32:39.575Z,1007.33
2023-05-01T00:33:39.524Z,1007.31
2023-05-01T00:34:39.527Z,1007.31
2023-05-01T00:35:39.518Z,1007.29
2023-05-01T00:36:39.528Z,1007.29
2023-05-01T00:37:39.491Z,1007.27
2023-05-01T00:38:39.490Z,1007.26
2023-05-01T00:39:39.467Z,1007.25
2023-05-01T00:40:39.462Z,1007.23
2023-05-01T00:41:39.445Z,1007.22
2023-05-01T00:42:39.498Z,1007.21
2023-05-01T00:43:39.421Z,1007.20
2023-05-01T00:44:39.440Z,1007.20
2023-05-01T00:45:39.438Z,1007.19
2023-05-01T00:46:39.405Z,1007.18
2023-05-01T00:47:39.407Z,1007.17
2023-05-01T00:48:39.389Z,1007.16
2023-05-01T00:49:39.384Z,1007.14
2023-05-01T00:50:39.381Z,1007.14
2023-05-01T00:51:39.337Z,1007.13
2023-05-01T00:52:39.378Z,1007.11
2023-05-01T00:53:39.314Z,1007.10
2023-05-01T00:54:39.323Z,1007.09
2023-05-01T00:55:39.366Z,1007.08
2023-05-01T00:56:39.286Z,1007.07
2023-05-01T00:57:39.280Z,1007.06
2023-05-01T00:58:39.279Z,1007.06
2023-05-01T00:59:39.271Z,1007.04
2023-05-01T01:00:39.280Z,1007.02
2023-05-01T01:01:39.345Z,1007.01
2023-05-01T01:02:39.255Z,1007.00
2023-05-01T01:03:39.213Z,1006.99
2023-05-01T01:04:39.295Z,1006.98
2023-05-01T01:05:39.199Z,1006.97
2023-05-01T01:06:39.219Z,1006.96
2023-05-01T01:07:39.164Z,1006.95
2023-05-01T01:08:39.173Z,1006.94
2023-05-01T01:09:39.157Z,1006.92
2023-05-01T01:10:39.161Z,1006.90
2023-05-01T01:11:39.128Z,1006.89
2023-05-01T01:12:39.134Z,1006.88
2023-05-01T01:13:39.098Z,1006.86
2023-05-01T01:14:39.096Z,1006.86
2023-05-01T01:15:39.081Z,1006.85
2023-05-01T01:16:39.169Z,1006.85
2023-05-01T01:17:39.057Z,1006.84
2023-05-01T01:18:39.055Z,1006.84
2023-05-01T01:19:39.045Z,1006.83
2023-05-01T01:20:39.100Z,1006.82
2023-05-01T01:21:39.045Z,1006.81
2023-05-01T01:22:39.016Z,1006.80
2023-05-01T01:23:38.991Z,1006.79
2023-05-01T01:24:38.998Z,1006.79
2023-05-01T01:25:38.993Z,1006.78
2023-05-01T01:26:38.978Z,1006.78
2023-05-01T01:27:38.963Z,1006.77
2023-05-01T01:28:38.941Z,1006.76
2023-05-01T01:29:39.286Z,1006.75
2023-05-01T01:30:39.021Z,1006.74
2023-05-01T01:31:39.013Z,1006.74
2023-05-01T01:32:38.970Z,1006.73
2023-05-01T01:33:38.892Z,1006.73
2023-05-01T01:34:38.903Z,1006.72
2023-05-01T01:35:38.871Z,1006.72
2023-05-01T01:36:38.910Z,1006.71
2023-05-01T01:37:38.838Z,1006.71
2023-05-01T01:38:38.841Z,1006.69
2023-05-01T01:39:38.830Z,1006.69
2023-05-01T01:40:38.836Z,1006.68
2023-05-01T01:41:38.811Z,1006.67
2023-05-01T01:42:38.804Z,1006.65
2023-05-01T01:43:38.774Z,1006.64
2023-05-01T01:44:38.775Z,1006.63
2023-05-01T01:45:38.764Z,1006.62
2023-05-01T01:46:38.842Z,1006.60
2023-05-01T01:47:38.755Z,1006.59
2023-05-01T01:48:38.748Z,1006.57
2023-05-01T01:49:38.730Z,1006.56
2023-05-01T01:50:38.710Z,1006.54
2023-05-01T01:51:38.706Z,1006.53
2023-05-01T01:52:38.715Z,1006.51
2023-05-01T01:53:38.676Z,1006.49
2023-05-01T01:54:38.677Z,1006.48
2023-05-01T01:55:38.655Z,1006.46
2023-05-01T01:56:38.640Z,1006.45
2023-05-01T01:57:38.646Z,1006.44
2023-05-01T01:58:38.641Z,1006.43
2023-05-01T01:59:38.633Z,1006.41
2023-05-01T02:00:38.606Z,1006.40
2023-05-01T02:01:38.689Z,1006.39
2023-05-01T02:02:38.778Z,1006.38
2023-05-01T02:03:38.753Z,1006.36
2023-05-01T02:04:38.565Z,1006.35
2023-05-01T02:05:38.566Z,1006.34
2023-05-01T02:06:38.615Z,1006.33
2023-05-01T02:07:38.562Z,1006.32
2023-05-01T02:08:38.608Z,1006.31
2023-05-01T02:09:38.546Z,1006.30
2023-05-01T02:10:38.505Z,1006.29
2023-05-01T02:11:38.495Z,1006.28
2023-05-01T02:12:38.482Z,1006.27
2023-05-01T02:13:38.479Z,1006.25
2023-05-01T02:14:38.487Z,1006.24
2023-05-01T02:15:38.455Z,1006.23
2023-05-01T02:16:38.534Z,1006.22
2023-05-01T02:17:38.481Z,1006.21
2023-05-01T02:18:38.437Z,1006.19
2023-05-01T02:19:38.414Z,1006.18
2023-05-01T02:20:38.423Z,1006.18
2023-05-01T02:21:38.406Z,1006.16
2023-05-01T02:22:38.380Z,1006.16
2023-05-01T02:23:38.402Z,1006.14
2023-05-01T02:24:38.358Z,1006.12
2023-05-01T02:25:38.374Z,1006.11
2023-05-01T02:26:38.339Z,1006.09
2023-05-01T02:27:38.335Z,1006.08
2023-05-01T02:28:38.324Z,1006.07
2023-05-01T02:29:38.314Z,1006.06
2023-05-01T02:30:38.305Z,1006.05
2023-05-01T02:31:38.325Z,1006.04
2023-05-01T02:32:38.298Z,1006.03
2023-05-01T02:33:38.288Z,1006.01
2023-05-01T02:34:38.270Z,1006.01
2023-05-01T02:35:38.266Z,1006.00
2023-05-01T02:36:38.243Z,1005.99
2023-05-01T02:37:38.229Z,1005.99
2023-05-01T02:38:38.226Z,1005.98
2023-05-01T02:39:38.221Z,1005.99
2023-05-01T02:40:38.211Z,1005.99
2023-05-01T02:41:38.195Z,1005.98
2023-05-01T02:42:38.201Z,1005.98
2023-05-01T02:43:38.176Z,1005.96
2023-05-01T02:44:38.156Z,1005.94
2023-05-01T02:45:38.215Z,1005.92
2023-05-01T02:46:38.245Z,1005.92
2023-05-01T02:47:38.169Z,1005.90
2023-05-01T02:48:38.149Z,1005.89
2023-05-01T02:49:38.105Z,1005.88
2023-05-01T02:50:38.087Z,1005.86
2023-05-01T02:51:38.086Z,1005.84
2023-05-01T02:52:38.105Z,1005.83
2023-05-01T02:53:38.078Z,1005.82
2023-05-01T02:54:38.052Z,1005.81
2023-05-01T02:55:38.050Z,1005.79
2023-05-01T02:56:38.039Z,1005.79
2023-05-01T02:57:38.043Z,1005.78
2023-05-01T02:58:38.016Z,1005.77
2023-05-01T02:59:38.007Z,1005.77
2023-05-01T03:00:38.013Z,1005.76
2023-05-01T03:01:38.067Z,1005.76
2023-05-01T03:02:38.003Z,1005.75
2023-05-01T03:03:37.969Z,1005.74
2023-05-01T03:04:38.060Z,1005.73
2023-05-01T03:05:37.950Z,1005.71
2023-05-01T03:06:38.033Z,1005.70
2023-05-01T03:07:37.924Z,1005.68
2023-05-01T03:08:37.937Z,1005.67
2023-05-01T03:09:37.937Z,1005.65
2023-05-01T03:10:37.895Z,1005.64
2023-05-01T03:11:37.893Z,1005.63
2023-05-01T03:12:37.859Z,1005.62
2023-05-01T03:13:37.860Z,1005.61
2023-05-01T03:14:37.848Z,1005.61
2023-05-01T03:15:37.845Z,1005.60
2023-05-01T03:16:37.887Z,1005.60
2023-05-01T03:17:37.828Z,1005.59
2023-05-01T03:18:37.812Z,1005.59
2023-05-01T03:19:37.800Z,1005.58
2023-05-01T03:20:37.806Z,1005.57
2023-05-01T03:21:37.784Z,1005.56
2023-05-01T03:22:37.765Z,1005.55
2023-05-01T03:23:37.753Z,1005.54
2023-05-01T03:24:37.740Z,1005.54
2023-05-01T03:25:37.725Z,1005.54
2023-05-01T03:26:37.725Z,1005.53
2023-05-01T03:27:37.709Z,1005.51
2023-05-01T03:28:37.703Z,1005.50
2023-05-01T03:29:37.714Z,1005.49
2023-05-01T03:30:38.224Z,1005.47
2023-05-01T03:31:37.708Z,1005.46
2023-05-01T03:32:37.698Z,1005.44
2023-05-01T03:33:37.658Z,1005.42
2023-05-01T03:34:37.645Z,1005.41
2023-05-01T03:35:37.719Z,1005.40
2023-05-01T03:36:37.632Z,1005.39
2023-05-01T03:37:37.613Z,1005.38
2023-05-01T03:38:37.585Z,1005.37
2023-05-01T03:39:37.606Z,1005.36
2023-05-01T03:40:37.589Z,1005.36
2023-05-01T03:41:37.578Z,1005.35
2023-05-01T03:42:37.502Z,1005.34
2023-05-01T03:43:37.538Z,1005.32
2023-05-01T03:44:37.492Z,1005.31
2023-05-01T03:45:37.476Z,1005.30
2023-05-01T03:46:37.709Z,1005.29
2023-05-01T03:47:37.886Z,1005.28
2023-05-01T03:48:37.445Z,1005.27
2023-05-01T03:49:37.454Z,1005.26
2023-05-01T03:50:37.466Z,1005.26
2023-05-01T03:51:37.418Z,1005.25
2023-05-01T03:52:37.410Z,1005.24
2023-05-01T03:53:37.397Z,1005.24
2023-05-01T03:54:37.391Z,1005.24
2023-05-01T03:55:37.369Z,1005.24
2023-05-01T03:56:37.359Z,1005.24
2023-05-01T03:57:37.350Z,1005.24
2023-05-01T03:58:37.367Z,1005.24
2023-05-01T03:59:37.318Z,1005.23
2023-05-01T04:00:37.332Z,1005.23
2023-05-01T04:01:37.315Z,1005.24
2023-05-01T04:02:37.390Z,1005.23
2023-05-01T04:03:37.443Z,1005.23
2023-05-01T04:04:37.460Z,1005.23
2023-05-01T04:05:37.272Z,1005.23
2023-05-01T04:06:37.303Z,1005.22
2023-05-01T04:07:37.272Z,1005.21
2023-05-01T04:08:37.233Z,1005.21
2023-05-01T04:09:43.872Z,1005.20
2023-05-01T04:10:37.215Z,1005.21
2023-05-01T04:11:37.211Z,1005.20
2023-05-01T04:12:37.202Z,1005.19
2023-05-01T04:13:37.179Z,1005.18
2023-05-01T04:14:37.173Z,1005.16
2023-05-01T04:15:37.163Z,1005.15
2023-05-01T04:16:37.221Z,1005.14
2023-05-01T04:17:37.162Z,1005.13
2023-05-01T04:18:37.123Z,1005.12
2023-05-01T04:19:37.113Z,1005.12
2023-05-01T04:20:37.114Z,1005.12
2023-05-01T04:21:37.112Z,1005.10
2023-05-01T04:22:37.092Z,1005.10
2023-05-01T04:23:37.073Z,1005.09
2023-05-01T04:24:37.069Z,1005.09
2023-05-01T04:25:37.096Z,1005.08
2023-05-01T04:26:37.087Z,1005.08
2023-05-01T04:27:37.079Z,1005.07
2023-05-01T04:28:37.018Z,1005.07
2023-05-01T04:29:37.028Z,1005.06
2023-05-01T04:30:36.997Z,1005.05
2023-05-01T04:31:37.025Z,1005.05
2023-05-01T04:32:37.009Z,1005.04
2023-05-01T04:33:36.971Z,1005.04
2023-05-01T04:34:36.957Z,1005.04
2023-05-01T04:35:36.955Z,1005.03
2023-05-01T04:36:36.954Z,1005.03
2023-05-01T04:37:36.933Z,1005.03
2023-05-01T04:38:36.923Z,1005.03
2023-05-01T04:39:36.928Z,1005.03
2023-05-01T04:40:36.916Z,1005.01
2023-05-01T04:41:36.901Z,1005.01
2023-05-01T04:42:36.882Z,1005.01
2023-05-01T04:43:36.870Z,1005.00
2023-05-01T04:44:36.862Z,1005.00
2023-05-01T04:45:36.858Z,1005.01
2023-05-01T04:46:36.869Z,1005.01
2023-05-01T04:47:36.856Z,1005.01
2023-05-01T04:48:36.821Z,1005.02
2023-05-01T04:49:36.819Z,1005.03
2023-05-01T04:50:36.793Z,1005.03
2023-05-01T04:51:36.776Z,1005.04
2023-05-01T04:52:36.763Z,1005.04
2023-05-01T04:53:36.777Z,1005.05
2023-05-01T04:54:36.751Z,1005.05
2023-05-01T04:55:36.748Z,1005.06
2023-05-01T04:56:36.722Z,1005.06
2023-05-01T04:57:36.722Z,1005.07
2023-05-01T04:58:36.726Z,1005.08
2023-05-01T04:59:36.688Z,1005.08
2023-05-01T05:00:36.682Z,1005.07
2023-05-01T05:01:36.716Z,1005.07
2023-05-01T05:02:36.782Z,1005.06
2023-05-01T05:03:36.716Z,1005.05
2023-05-01T05:04:36.648Z,1005.04
2023-05-01T05:05:36.636Z,1005.04
2023-05-01T05:06:36.681Z,1005.04
2023-05-01T05:07:36.611Z,1005.03
2023-05-01T05:08:36.611Z,1005.04
2023-05-01T05:09:36.639Z,1005.05
2023-05-01T05:10:36.571Z,1005.05
2023-05-01T05:11:36.580Z,1005.05
2023-05-01T05:12:36.556Z,1005.04
2023-05-01T05:13:36.553Z,1005.05
2023-05-01T05:14:36.542Z,1005.05
2023-05-01T05:15:36.533Z,1005.06
2023-05-01T05:16:36.561Z,1005.06
2023-05-01T05:17:36.560Z,1005.06
2023-05-01T05:18:36.486Z,1005.06
2023-05-01T05:19:36.514Z,1005.05
2023-05-01T05:20:36.473Z,1005.05
2023-05-01T05:21:36.460Z,1005.04
2023-05-01T05:22:36.456Z,1005.04
2023-05-01T05:23:36.428Z,1005.03
2023-05-01T05:24:36.414Z,1005.03
2023-05-01T05:25:36.433Z,1005.04
2023-05-01T05:26:36.401Z,1005.04
2023-05-01T05:27:37.407Z,1005.04
2023-05-01T05:28:36.374Z,1005.04
2023-05-01T05:29:36.363Z,1005.05
2023-05-01T05:30:36.389Z,1005.05
2023-05-01T05:31:36.425Z,1005.06
2023-05-01T05:32:36.349Z,1005.06
2023-05-01T05:33:36.324Z,1005.07
2023-05-01T05:34:36.307Z,1005.08
2023-05-01T05:35:36.306Z,1005.08
2023-05-01T05:36:36.292Z,1005.08
2023-05-01T05:37:36.294Z,1005.07
2023-05-01T05:38:36.266Z,1005.07
2023-05-01T05:39:36.263Z,1005.06
2023-05-01T05:40:36.242Z,1005.07
2023-05-01T05:41:36.255Z,1005.06
2023-05-01T05:42:36.257Z,1005.05
2023-05-01T05:43:36.233Z,1005.05
2023-05-01T05:44:36.219Z,1005.05
2023-05-01T05:45:36.270Z,1005.04
2023-05-01T05:46:36.281Z,1005.03
2023-05-01T05:47:36.174Z,1005.02
2023-05-01T05:48:36.160Z,1005.02
2023-05-01T05:49:36.191Z,1005.01
2023-05-01T05:50:36.144Z,1005.00
2023-05-01T05:51:36.140Z,1005.00
2023-05-01T05:52:36.114Z,1005.00
2023-05-01T05:53:36.110Z,1005.00
2023-05-01T05:54:36.113Z,1004.99
2023-05-01T05:55:36.112Z,1004.99
2023-05-01T05:56:36.086Z,1004.99
2023-05-01T05:57:36.084Z,1004.98
2023-05-01T05:58:36.053Z,1004.98
2023-05-01T05:59:36.048Z,1004.98
2023-05-01T06:00:36.143Z,1004.98
2023-05-01T06:01:36.043Z,1004.99
2023-05-01T06:02:36.084Z,1004.99
2023-05-01T06:03:36.169Z,1004.99
2023-05-01T06:04:35.992Z,1004.99
2023-05-01T06:05:36.030Z,1004.98
2023-05-01T06:06:36.056Z,1004.97
2023-05-01T06:07:35.968Z,1004.97
2023-05-01T06:08:35.957Z,1004.96
2023-05-01T06:09:35.944Z,1004.95
2023-05-01T06:10:35.936Z,1004.95
2023-05-01T06:11:35.939Z,1004.95
2023-05-01T06:12:37.894Z,1004.94
2023-05-01T06:13:35.923Z,1004.94
2023-05-01T06:14:35.886Z,1004.94
2023-05-01T06:15:35.900Z,1004.94
2023-05-01T06:16:35.977Z,1004.93
2023-05-01T06:17:35.906Z,1004.93
2023-05-01T06:18:35.865Z,1004.93
2023-05-01T06:19:35.858Z,1004.93
2023-05-01T06:20:35.825Z,1004.93
2023-05-01T06:21:35.842Z,1004.92
2023-05-01T06:22:35.830Z,1004.92
2023-05-01T06:23:35.813Z,1004.92
2023-05-01T06:24:35.812Z,1004.91
2023-05-01T06:25:35.794Z,1004.91
2023-05-01T06:26:35.788Z,1004.90
2023-05-01T06:27:35.817Z,1004.91
2023-05-01T06:28:35.771Z,1004.90
2023-05-01T06:29:35.740Z,1004.90
2023-05-01T06:30:35.739Z,1004.89
2023-05-01T06:31:35.796Z,1004.89
2023-05-01T06:32:35.722Z,1004.87
2023-05-01T06:33:35.688Z,1004.87
2023-05-01T06:34:35.700Z,1004.86
2023-05-01T06:35:35.669Z,1004.85
2023-05-01T06:36:35.706Z,1004.85
2023-05-01T06:37:35.649Z,1004.85
2023-05-01T06:38:35.645Z,1004.85
2023-05-01T06:39:35.637Z,1004.85
2023-05-01T06:40:35.625Z,1004.84
2023-05-01T06:41:35.623Z,1004.84
2023-05-01T06:42:35.609Z,1004.84
2023-05-01T06:43:35.599Z,1004.83
2023-05-01T06:44:35.577Z,1004.83
2023-05-01T06:45:35.571Z,1004.82
2023-05-01T06:46:35.621Z,1004.81
2023-05-01T06:47:35.638Z,1004.81
2023-05-01T06:48:35.543Z,1004.81
2023-05-01T06:49:35.538Z,1004.81
2023-05-01T06:50:35.546Z,1004.81
2023-05-01T06:51:35.499Z,1004.81
2023-05-01T06:52:35.501Z,1004.81
2023-05-01T06:53:35.479Z,1004.80
2023-05-01T06:54:35.497Z,1004.80
2023-05-01T06:55:35.999Z,1004.80
2023-05-01T06:56:35.501Z,1004.80
2023-05-01T06:57:35.437Z,1004.80
2023-05-01T06:58:35.434Z,1004.81
2023-05-01T06:59:35.447Z,1004.81
2023-05-01T07:00:35.437Z,1004.83
2023-05-01T07:01:35.988Z,1004.83
2023-05-01T07:02:35.550Z,1004.84
2023-05-01T07:03:35.471Z,1004.84
2023-05-01T07:04:35.387Z,1004.84
2023-05-01T07:05:35.367Z,1004.85
2023-05-01T07:06:35.394Z,1004.86
2023-05-01T07:07:35.354Z,1004.86
2023-05-01T07:08:35.334Z,1004.87
2023-05-01T07:09:35.318Z,1004.87
2023-05-01T07:10:35.321Z,1004.87
2023-05-01T07:11:35.298Z,1004.86
2023-05-01T07:12:35.293Z,1004.85
2023-05-01T07:13:35.288Z,1004.85
2023-05-01T07:14:35.295Z,1004.84
2023-05-01T07:15:35.256Z,1004.82
2023-05-01T07:16:35.289Z,1004.81
2023-05-01T07:17:35.269Z,1004.80
2023-05-01T07:18:35.243Z,1004.79
2023-05-01T07:19:35.229Z,1004.78
2023-05-01T07:20:35.208Z,1004.77
2023-05-01T07:21:35.241Z,1004.77
2023-05-01T07:22:35.195Z,1004.77
2023-05-01T07:23:35.170Z,1004.78
2023-05-01T07:24:35.170Z,1004.78
2023-05-01T07:25:35.162Z,1004.78
2023-05-01T07:26:35.179Z,1004.79
2023-05-01T07:27:35.208Z,1004.80
2023-05-01T07:28:35.123Z,1004.80
2023-05-01T07:29:35.108Z,1004.80
2023-05-01T07:30:35.120Z,1004.82
2023-05-01T07:31:35.149Z,1004.82
2023-05-01T07:32:35.196Z,1004.83
2023-05-01T07:33:35.115Z,1004.83
2023-05-01T07:34:35.067Z,1004.82
2023-05-01T07:35:35.102Z,1004.83
2023-05-01T07:36:35.059Z,1004.81
2023-05-01T07:37:35.052Z,1004.82
2023-05-01T07:38:35.044Z,1004.80
2023-05-01T07:39:35.016Z,1004.80
2023-05-01T07:40:35.028Z,1004.80
2023-05-01T07:41:34.995Z,1004.80
2023-05-01T07:42:34.982Z,1004.79
2023-05-01T07:43:34.983Z,1004.79
2023-05-01T07:44:34.987Z,1004.79
2023-05-01T07:45:34.968Z,1004.79
2023-05-01T07:46:35.084Z,1004.78
2023-05-01T07:47:34.956Z,1004.78
2023-05-01T07:48:35.621Z,1004.78
2023-05-01T07:49:34.910Z,1004.78
2023-05-01T07:50:34.937Z,1004.78
2023-05-01T07:51:34.886Z,1004.77
2023-05-01T07:52:34.876Z,1004.77
2023-05-01T07:53:34.882Z,1004.78
2023-05-01T07:54:34.853Z,1004.77
2023-05-01T07:55:34.850Z,1004.76
2023-05-01T07:56:34.852Z,1004.77
2023-05-01T07:57:34.832Z,1004.76
2023-05-01T07:58:34.827Z,1004.76
2023-05-01T07:59:34.802Z,1004.77
2023-05-01T08:00:34.808Z,1004.76
2023-05-01T08:01:34.781Z,1004.76
2023-05-01T08:02:34.804Z,1004.75
2023-05-01T08:03:34.891Z,1004.75
2023-05-01T08:04:34.806Z,1004.74
2023-05-01T08:05:34.750Z,1004.74
2023-05-01T08:06:34.765Z,1004.74
2023-05-01T08:07:34.779Z,1004.73
2023-05-01T08:08:34.746Z,1004.74
2023-05-01T08:09:34.688Z,1004.73
2023-05-01T08:10:34.699Z,1004.73
2023-05-01T08:11:34.678Z,1004.72
2023-05-01T08:12:34.667Z,1004.72
2023-05-01T08:13:34.653Z,1004.72
2023-05-01T08:14:34.661Z,1004.72
2023-05-01T08:15:34.636Z,1004.72
2023-05-01T08:16:34.731Z,1004.72
2023-05-01T08:17:34.648Z,1004.72
2023-05-01T08:18:34.643Z,1004.71
2023-05-01T08:19:34.599Z,1004.71
2023-05-01T08:20:34.600Z,1004.71
2023-05-01T08:21:34.587Z,1004.72
2023-05-01T08:22:34.562Z,1004.72
2023-05-01T08:23:34.574Z,1004.71
2023-05-01T08:24:34.567Z,1004.70
2023-05-01T08:25:34.552Z,1004.69
2023-05-01T08:26:34.527Z,1004.68
2023-05-01T08:27:34.538Z,1004.67
2023-05-01T08:28:34.525Z,1004.66
2023-05-01T08:29:34.496Z,1004.65
2023-05-01T08:30:34.487Z,1004.64
2023-05-01T08:31:34.502Z,1004.64
2023-05-01T08:32:34.523Z,1004.64
2023-05-01T08:33:34.486Z,1004.64
2023-05-01T08:34:34.444Z,1004.63
2023-05-01T08:35:34.429Z,1004.62
2023-05-01T08:36:34.430Z,1004.62
2023-05-01T08:37:34.435Z,1004.61
2023-05-01T08:38:34.401Z,1004.60
2023-05-01T08:39:34.409Z,1004.60
2023-05-01T08:40:34.419Z,1004.60
2023-05-01T08:41:34.370Z,1004.60
2023-05-01T08:42:34.368Z,1004.60
2023-05-01T08:43:34.353Z,1004.60
2023-05-01T08:44:34.356Z,1004.60
2023-05-01T08:45:34.320Z,1004.60
2023-05-01T08:46:34.363Z,1004.59
2023-05-01T08:47:34.374Z,1004.61
2023-05-01T08:48:34.299Z,1004.60
2023-05-01T08:49:34.301Z,1004.59
2023-05-01T08:50:34.320Z,1004.59
2023-05-01T08:51:34.302Z,1004.58
2023-05-01T08:52:34.257Z,1004.58
2023-05-01T08:53:34.252Z,1004.57
2023-05-01T08:54:34.242Z,1004.57
2023-05-01T08:55:34.229Z,1004.56
2023-05-01T08:56:34.223Z,1004.55
2023-05-01T08:57:34.218Z,1004.55
2023-05-01T08:58:34.205Z,1004.54
2023-05-01T08:59:34.211Z,1004.54
2023-05-01T09:00:34.206Z,1004.53
2023-05-01T09:01:34.176Z,1004.52
2023-05-01T09:02:34.292Z,1004.52
2023-05-01T09:03:34.209Z,1004.51
2023-05-01T09:04:34.140Z,1004.51
2023-05-01T09:05:34.119Z,1004.51
2023-05-01T09:06:34.249Z,1004.50
2023-05-01T09:07:34.188Z,1004.50
2023-05-01T09:08:34.096Z,1004.50
2023-05-01T09:09:34.087Z,1004.50
2023-05-01T09:10:34.073Z,1004.50
2023-05-01T09:11:34.049Z,1004.50
2023-05-01T09:12:34.120Z,1004.50
2023-05-01T09:13:34.027Z,1004.50
2023-05-01T09:14:34.027Z,1004.49
2023-05-01T09:15:34.033Z,1004.49
2023-05-01T09:16:34.065Z,1004.49
2023-05-01T09:17:34.003Z,1004.48
2023-05-01T09:18:33.978Z,1004.49
2023-05-01T09:19:33.983Z,1004.48
2023-05-01T09:20:33.974Z,1004.49
2023-05-01T09:21:33.953Z,1004.48
2023-05-01T09:22:33.936Z,1004.47
2023-05-01T09:23:33.926Z,1004.48
2023-05-01T09:24:33.921Z,1004.48
2023-05-01T09:25:33.919Z,1004.48
2023-05-01T09:26:33.903Z,1004.48
2023-05-01T09:27:33.915Z,1004.47
2023-05-01T09:28:33.911Z,1004.45
2023-05-01T09:29:33.875Z,1004.44
2023-05-01T09:30:33.862Z,1004.43
2023-05-01T09:31:33.854Z,1004.43
2023-05-01T09:32:33.884Z,1004.44
2023-05-01T09:33:33.826Z,1004.43
2023-05-01T09:34:33.827Z,1004.42
2023-05-01T09:35:33.806Z,1004.42
2023-05-01T09:36:33.809Z,1004.42
2023-05-01T09:37:33.789Z,1004.42
2023-05-01T09:38:33.780Z,1004.41
2023-05-01T09:39:33.804Z,1004.40
2023-05-01T09:40:33.763Z,1004.40
2023-05-01T09:41:33.750Z,1004.39
2023-05-01T09:42:33.736Z,1004.39
2023-05-01T09:43:33.733Z,1004.39
2023-05-01T09:44:33.715Z,1004.39
2023-05-01T09:45:33.771Z,1004.39
2023-05-01T09:46:33.799Z,1004.39
2023-05-01T09:47:33.746Z,1004.38
2023-05-01T09:48:35.646Z,1004.37
2023-05-01T09:49:33.724Z,1004.37
2023-05-01T09:50:33.671Z,1004.36
2023-05-01T09:51:33.631Z,1004.36
2023-05-01T09:52:33.633Z,1004.37
2023-05-01T09:53:33.634Z,1004.37
2023-05-01T09:54:33.610Z,1004.38
2023-05-01T09:55:33.602Z,1004.38
2023-05-01T09:56:33.613Z,1004.38
2023-05-01T09:57:33.572Z,1004.38
2023-05-01T09:58:33.564Z,1004.38
2023-05-01T09:59:33.562Z,1004.39
2023-05-01T10:00:33.552Z,1004.38
2023-05-01T10:01:33.567Z,1004.36
2023-05-01T10:02:33.639Z,1004.35
2023-05-01T10:03:33.579Z,1004.34
2023-05-01T10:04:33.504Z,1004.33
2023-05-01T10:05:33.487Z,1004.33
2023-05-01T10:06:33.585Z,1004.32
2023-05-01T10:07:33.566Z,1004.32
2023-05-01T10:08:33.468Z,1004.32
2023-05-01T10:09:33.478Z,1004.33
2023-05-01T10:10:33.474Z,1004.33
2023-05-01T10:11:33.425Z,1004.33
2023-05-01T10:12:33.440Z,1004.34
2023-05-01T10:13:33.403Z,1004.34
2023-05-01T10:14:33.405Z,1004.34
2023-05-01T10:15:33.389Z,1004.34
2023-05-01T10:16:33.430Z,1004.34
2023-05-01T10:17:33.404Z,1004.35
2023-05-01T10:18:33.358Z,1004.32
2023-05-01T10:19:33.342Z,1004.35
2023-05-01T10:20:33.348Z,1004.36
2023-05-01T10:21:33.326Z,1004.37
2023-05-01T10:22:33.336Z,1004.35
2023-05-01T10:23:33.341Z,1004.32
2023-05-01T10:24:33.312Z,1004.33
2023-05-01T10:25:33.279Z,1004.31
2023-05-01T10:26:33.299Z,1004.31
2023-05-01T10:27:33.303Z,1004.32
2023-05-01T10:28:33.249Z,1004.32
2023-05-01T10:29:33.250Z,1004.34
2023-05-01T10:30:33.229Z,1004.33
2023-05-01T10:31:33.497Z,1004.34
2023-05-01T10:32:33.254Z,1004.34
2023-05-01T10:33:33.242Z,1004.36
2023-05-01T10:34:33.198Z,1004.34
2023-05-01T10:35:33.175Z,1004.34
2023-05-01T10:36:33.192Z,1004.36
2023-05-01T10:37:33.151Z,1004.35
2023-05-01T10:38:33.155Z,1004.33
2023-05-01T10:39:33.159Z,1004.34
2023-05-01T10:40:33.129Z,1004.33
2023-05-01T10:41:33.120Z,1004.32
2023-05-01T10:42:33.109Z,1004.29
2023-05-01T10:43:33.095Z,1004.29
2023-05-01T10:44:33.092Z,1004.28
2023-05-01T10:45:33.892Z,1004.27
2023-05-01T10:46:33.207Z,1004.26
2023-05-01T10:47:33.088Z,1004.27
2023-05-01T10:48:33.048Z,1004.26
2023-05-01T10:49:33.032Z,1004.23
2023-05-01T10:50:33.025Z,1004.23
2023-05-01T10:51:33.018Z,1004.23
2023-05-01T10:52:33.010Z,1004.21
2023-05-01T10:53:33.010Z,1004.18
2023-05-01T10:54:32.981Z,1004.17
2023-05-01T10:55:33.002Z,1004.15
2023-05-01T10:56:32.958Z,1004.14
2023-05-01T10:57:32.956Z,1004.13
2023-05-01T10:58:32.930Z,1004.12
2023-05-01T10:59:32.928Z,1004.13
2023-05-01T11:00:32.922Z,1004.11
2023-05-01T11:01:33.169Z,1004.09
2023-05-01T11:02:32.916Z,1004.08
2023-05-01T11:03:32.906Z,1004.08
2023-05-01T11:04:32.881Z,1004.07
2023-05-01T11:06:33.037Z,1004.04
2023-05-01T11:07:32.850Z,1004.02
2023-05-01T11:08:32.860Z,1004.00
2023-05-01T11:09:32.846Z,1003.98
2023-05-01T11:10:32.818Z,1003.97
2023-05-01T11:11:32.810Z,1003.98
2023-05-01T11:12:32.795Z,1003.98
2023-05-01T11:13:32.787Z,1003.99
2023-05-01T11:14:32.781Z,1003.99
2023-05-01T11:15:32.811Z,1003.97
2023-05-01T11:16:32.771Z,1003.97
2023-05-01T11:17:32.839Z,1003.96
2023-05-01T11:18:32.729Z,1003.97
2023-05-01T11:19:32.760Z,1003.97
2023-05-01T11:20:32.732Z,1003.95
2023-05-01T11:21:32.717Z,1003.93
2023-05-01T11:22:32.745Z,1003.92
2023-05-01T11:23:32.677Z,1003.92
2023-05-01T11:24:32.671Z,1003.94
2023-05-01T11:25:32.661Z,1003.92
2023-05-01T11:26:32.754Z,1003.91
2023-05-01T11:27:32.701Z,1003.93
2023-05-01T11:28:32.637Z,1003.93
2023-05-01T11:29:32.619Z,1003.93
2023-05-01T11:30:32.603Z,1003.92
2023-05-01T11:31:32.615Z,1003.87
2023-05-01T11:32:32.619Z,1003.86
2023-05-01T11:33:32.604Z,1003.86
2023-05-01T11:34:32.596Z,1003.88
2023-05-01T11:35:32.594Z,1003.90
2023-05-01T11:36:32.549Z,1003.90
2023-05-01T11:37:32.535Z,1003.91
2023-05-01T11:38:32.526Z,1003.92
2023-05-01T11:39:32.515Z,1003.91
2023-05-01T11:40:32.509Z,1003.92
2023-05-01T11:41:32.508Z,1003.92
2023-05-01T11:42:32.555Z,1003.91
2023-05-01T11:43:32.480Z,1003.91
2023-05-01T11:44:32.472Z,1003.91
2023-05-01T11:45:32.533Z,1003.92
2023-05-01T11:46:32.658Z,1003.93
2023-05-01T11:47:32.459Z,1003.92
2023-05-01T11:48:32.433Z,1003.90
2023-05-01T11:49:32.410Z,1003.91
2023-05-01T11:50:32.395Z,1003.92
2023-05-01T11:51:32.427Z,1003.91
2023-05-01T11:52:32.385Z,1003.90
2023-05-01T11:53:32.410Z,1003.89
2023-05-01T11:54:32.352Z,1003.88
2023-05-01T11:55:32.346Z,1003.86
2023-05-01T11:56:32.348Z,1003.86
2023-05-01T11:57:32.332Z,1003.86
2023-05-01T11:58:32.332Z,1003.87
2023-05-01T11:59:32.306Z,1003.87
2023-05-01T12:00:32.297Z,1003.85
2023-05-01T12:01:32.286Z,1003.83
2023-05-01T12:02:32.392Z,1003.82
2023-05-01T12:03:32.336Z,1003.80
2023-05-01T12:04:32.703Z,1003.79
2023-05-01T12:05:32.266Z,1003.78
2023-05-01T12:06:32.297Z,1003.77